Time;durP1;ratioP1;P1;durP2;ratioP2;P2;SDS_P1;SDS_P2;PMS_P1;PMS_P2;Temp;Humidity;BMP_temperature;BMP_pressure;BME280_temperature;BME280_humidity;BME280_pressure;Samples;Min_cycle;Max_cycle;Signal;HPM_P1;HPM_P2
2022/11/30 00:00:31;;;;;;;7.67;3.90;;;;;;;0.21;92.72;101816.40;1746404;82;21166;-66
2022/11/30 00:03:01;;;;;;;8.63;4.10;;;;;;;0.19;92.68;101818.33;1741050;81;21118;-64
2022/11/30 00:05:30;;;;;;;9.48;3.98;;;;;;;0.17;92.66;101812.16;1746288;82;21094;-66
2022/11/30 00:08:01;;;;;;;7.12;3.72;;;;;;;0.17;92.70;101814.86;1740743;82;21142;-66
2022/11/30 00:10:31;;;;;;;8.48;3.83;;;;;;;0.19;92.83;101816.11;1740941;82;21536;-65
2022/11/30 00:13:00;;;;;;;9.55;4.17;;;;;;;0.17;92.81;101814.86;1746534;82;21738;-65
2022/11/30 00:15:30;;;;;;;10.28;3.83;;;;;;;0.15;92.95;101811.39;1741033;82;21114;-67
2022/11/30 00:17:59;;;;;;;9.58;3.85;;;;;;;0.16;93.10;101812.27;1746357;82;21194;-64
2022/11/30 00:20:30;;;;;;;9.75;3.65;;;;;;;0.15;93.22;101810.53;1740872;82;21119;-65
2022/11/30 00:22:59;;;;;;;7.97;3.83;;;;;;;0.12;93.15;101811.59;1751817;82;21548;-66
2022/11/30 00:25:29;;;;;;;8.43;4.40;;;;;;;0.10;93.24;101809.95;1752474;81;21559;-72
2022/11/30 00:28:00;;;;;;;8.48;4.00;;;;;;;0.07;93.31;101811.01;1752188;82;21204;-64
2022/11/30 00:30:30;;;;;;;7.92;4.40;;;;;;;0.02;93.40;101807.73;1752284;82;21156;-64
2022/11/30 00:32:59;;;;;;;7.47;4.15;;;;;;;0.02;93.50;101810.91;1752213;81;21120;-64
2022/11/30 00:35:30;;;;;;;8.55;4.00;;;;;;;-0.01;93.56;101802.50;1752159;82;21151;-64
2022/11/30 00:38:03;;;;;;;8.28;3.80;;;;;;;-0.02;93.58;101807.51;1752198;81;21151;-64
2022/11/30 00:40:32;;;;;;;9.93;4.35;;;;;;;-0.04;93.73;101806.73;1752091;82;21093;-63
2022/11/30 00:43:01;;;;;;;8.65;4.08;;;;;;;-0.03;93.90;101808.47;1752371;81;21152;-63
2022/11/30 00:45:31;;;;;;;8.60;3.55;;;;;;;-0.05;93.96;101802.31;1737313;82;21136;-66
2022/11/30 00:48:00;;;;;;;6.15;3.52;;;;;;;-0.04;94.00;101802.70;1703184;84;21159;-65
2022/11/30 00:50:29;;;;;;;7.72;3.80;;;;;;;-0.02;94.01;101800.77;1703213;84;21158;-63
2022/11/30 00:52:58;;;;;;;6.65;3.20;;;;;;;-0.04;93.93;101801.34;1679736;84;21128;-64
2022/11/30 00:55:28;;;;;;;7.28;3.27;;;;;;;-0.09;93.75;101804.81;1703113;84;21156;-64
2022/11/30 00:58:00;;;;;;;6.17;3.42;;;;;;;-0.09;93.75;101803.46;1665939;86;21112;-64
2022/11/30 01:00:30;;;;;;;6.42;3.35;;;;;;;-0.09;93.74;101798.94;1703188;84;21171;-64
2022/11/30 01:03:00;;;;;;;9.33;3.85;;;;;;;-0.08;93.78;101799.33;1703281;84;21639;-63
2022/11/30 01:05:29;;;;;;;7.97;3.65;;;;;;;-0.06;93.73;101792.50;1703097;84;21139;-74
2022/11/30 01:08:02;;;;;;;7.80;3.27;;;;;;;-0.04;93.74;101794.61;1703182;84;21172;-63
2022/11/30 01:10:34;;;;;;;8.25;3.27;;;;;;;-0.02;93.50;101787.30;1666045;86;21133;-65
2022/11/30 01:13:03;;;;;;;7.92;3.58;;;;;;;-0.04;93.32;101784.70;1736751;82;21121;-62
2022/11/30 01:15:39;;;;;;;8.75;3.45;;;;;;;-0.04;93.17;101786.53;1752164;82;21140;-62
2022/11/30 01:18:08;;;;;;;8.90;3.47;;;;;;;-0.05;93.19;101784.80;1752117;81;21128;-65
2022/11/30 01:20:41;;;;;;;6.62;3.20;;;;;;;-0.05;93.22;101782.97;1752144;82;21113;-63
2022/11/30 01:23:12;;;;;;;7.62;3.75;;;;;;;-0.02;93.29;101787.30;1740007;81;21559;-64
2022/11/30 01:25:41;;;;;;;7.90;4.10;;;;;;;0.02;93.30;101779.92;1764933;81;21088;-63
2022/11/30 01:28:10;;;;;;;7.60;3.75;;;;;;;0.03;93.39;101774.44;1765012;81;21116;-64
2022/11/30 01:30:39;;;;;;;10.65;3.60;;;;;;;0.05;93.35;101777.91;1765051;81;21139;-63
2022/11/30 01:33:09;;;;;;;13.55;3.90;;;;;;;0.04;93.22;101769.91;1765182;81;21574;-64
2022/11/30 01:35:38;;;;;;;9.08;3.42;;;;;;;0.03;92.96;101770.88;1765179;81;21553;-63
2022/11/30 01:38:08;;;;;;;7.78;3.35;;;;;;;0.02;92.96;101773.19;1703214;84;21631;-63
2022/11/30 01:40:37;;;;;;;5.75;3.55;;;;;;;0.04;93.01;101768.09;1677569;84;21558;-63
2022/11/30 01:43:11;;;;;;;7.28;3.27;;;;;;;0.06;92.98;101770.20;1703196;84;21621;-64
2022/11/30 01:45:40;;;;;;;7.20;3.52;;;;;;;0.06;92.76;101772.90;1701675;83;21091;-66
2022/11/30 01:48:09;;;;;;;7.67;3.45;;;;;;;0.07;92.66;101767.89;1765319;81;21254;-64
2022/11/30 01:50:38;;;;;;;9.38;3.72;;;;;;;0.09;92.49;101752.49;1765304;81;21120;-64
2022/11/30 01:53:09;;;;;;;6.58;3.33;;;;;;;0.12;92.35;101761.73;1765256;81;21555;-63
2022/11/30 01:55:43;;;;;;;5.28;3.25;;;;;;;0.13;92.18;101766.16;1764971;81;21603;-62
2022/11/30 01:58:20;;;;;;;7.05;3.58;;;;;;;0.11;91.87;101769.43;1739707;81;21151;-64
2022/11/30 02:00:50;;;;;;;8.60;3.52;;;;;;;0.11;91.53;101772.61;1765040;81;21147;-63
2022/11/30 02:03:44;;;;;;;7.20;3.20;;;;;;;0.10;91.11;101776.27;1765337;81;21084;-63
2022/11/30 02:06:14;;;;;;;6.37;3.00;;;;;;;0.10;90.74;101779.83;1765024;81;21239;-62
2022/11/30 02:08:43;;;;;;;7.70;3.22;;;;;;;0.11;90.28;101780.69;1739773;81;21124;-63
2022/11/30 02:11:13;;;;;;;7.80;3.15;;;;;;;0.08;89.79;101780.89;1765056;81;21589;-63
2022/11/30 02:13:57;;;;;;;7.28;3.50;;;;;;;0.07;89.54;101786.75;1765089;81;21258;-64
2022/11/30 02:16:40;;;;;;;7.62;3.42;;;;;;;0.09;89.22;101789.36;1638689;87;21179;-63
2022/11/30 02:19:53;;;;;;;6.37;3.17;;;;;;;0.08;88.98;101790.31;1638923;87;21156;-63
2022/11/30 02:23:02;;;;;;;5.97;2.98;;;;;;;0.08;88.89;101788.97;1638376;87;21596;-63
2022/11/30 02:26:05;;;;;;;7.47;3.10;;;;;;;0.07;88.43;101788.11;1604245;88;21134;-63
2022/11/30 02:28:52;;;;;;;7.95;2.95;;;;;;;0.07;88.42;101793.98;1637780;87;21194;-62
2022/11/30 02:31:26;;;;;;;7.33;3.22;;;;;;;0.07;88.19;101785.89;1638102;87;21173;-62
2022/11/30 02:33:56;;;;;;;7.65;3.47;;;;;;;0.10;88.04;101781.17;1654802;84;21178;-63
2022/11/30 02:36:26;;;;;;;7.70;3.60;;;;;;;0.10;87.83;101774.44;1715118;83;21237;-62
2022/11/30 02:38:56;;;;;;;7.12;3.42;;;;;;;0.06;87.40;101774.25;1715297;84;21186;-63
2022/11/30 02:41:25;;;;;;;7.67;3.65;;;;;;;0.04;86.86;101780.69;1697169;84;21277;-63
2022/11/30 02:43:54;;;;;;;4.85;3.00;;;;;;;-0.01;86.64;101787.69;1714775;84;21450;-64
2022/11/30 02:46:28;;;;;;;8.15;3.35;;;;;;;-0.03;86.21;101792.30;1715341;82;21146;-62
2022/11/30 02:49:15;;;;;;;12.00;3.50;;;;;;;-0.01;85.30;101795.77;1714955;84;21158;-62
2022/11/30 02:51:44;;;;;;;7.80;3.50;;;;;;;-0.03;85.07;101786.44;1714431;83;21132;-62
2022/11/30 02:54:14;;;;;;;8.65;3.25;;;;;;;-0.03;84.88;101785.09;1697304;84;21115;-62
2022/11/30 02:56:44;;;;;;;8.00;3.70;;;;;;;-0.04;84.57;101776.63;1715044;84;21162;-62
2022/11/30 02:59:13;;;;;;;7.83;2.90;;;;;;;-0.06;84.32;101776.33;1715173;84;21182;-62
2022/11/30 03:01:44;;;;;;;7.95;2.90;;;;;;;-0.09;84.27;101785.47;1714665;84;21190;-63
2022/11/30 03:04:13;;;;;;;7.22;3.08;;;;;;;-0.08;84.28;101791.24;1714796;82;21175;-64
2022/11/30 03:06:43;;;;;;;6.17;2.80;;;;;;;-0.05;84.36;101783.45;1715199;83;21249;-63
2022/11/30 03:09:13;;;;;;;6.62;3.10;;;;;;;-0.03;84.22;101792.30;1715147;84;21566;-63
2022/11/30 03:11:43;;;;;;;5.35;2.60;;;;;;;-0.02;84.16;101789.99;1714941;84;21163;-63
2022/11/30 03:14:14;;;;;;;9.88;3.30;;;;;;;-0.07;83.68;101790.77;1715373;84;21123;-63
2022/11/30 03:16:44;;;;;;;8.68;3.22;;;;;;;-0.07;83.60;101786.72;1715074;84;21186;-63
2022/11/30 03:19:14;;;;;;;9.88;3.17;;;;;;;-0.09;83.55;101784.12;1697329;84;21539;-63
2022/11/30 03:21:43;;;;;;;5.83;3.10;;;;;;;-0.10;83.15;101778.83;1715477;81;21186;-63
2022/11/30 03:24:13;;;;;;;4.95;2.42;;;;;;;-0.11;83.01;101767.67;1683711;83;21147;-62
2022/11/30 03:26:43;;;;;;;8.28;3.20;;;;;;;-0.11;83.08;101770.36;1735221;83;21143;-63
2022/11/30 03:29:13;;;;;;;5.67;3.12;;;;;;;-0.12;83.02;101778.92;1735298;82;21087;-64
2022/11/30 03:31:42;;;;;;;6.75;3.05;;;;;;;-0.15;83.01;101770.17;1735508;82;21119;-64
2022/11/30 03:34:11;;;;;;;6.28;2.87;;;;;;;-0.18;83.20;101783.34;1735275;83;21110;-65
2022/11/30 03:36:41;;;;;;;6.95;3.42;;;;;;;-0.18;82.88;101788.73;1707213;82;21598;-63
2022/11/30 03:39:10;;;;;;;4.75;2.60;;;;;;;-0.19;82.58;101780.75;1707709;83;21111;-64
2022/11/30 03:41:40;;;;;;;9.75;2.80;;;;;;;-0.20;82.76;101762.37;1735318;82;21107;-64
2022/11/30 03:44:09;;;;;;;6.40;3.15;;;;;;;-0.19;82.85;101766.80;1735601;82;21155;-63
2022/11/30 03:46:38;;;;;;;7.40;2.90;;;;;;;-0.20;82.80;101778.53;1735414;82;21895;-64
2022/11/30 03:49:10;;;;;;;7.80;3.52;;;;;;;-0.21;82.97;101773.24;1708191;83;21119;-64
2022/11/30 03:51:40;;;;;;;5.70;2.90;;;;;;;-0.20;82.87;101783.05;1734876;83;21158;-65
2022/11/30 03:54:10;;;;;;;5.85;2.95;;;;;;;-0.21;82.49;101782.67;1735253;83;21562;-64
2022/11/30 03:56:40;;;;;;;7.60;3.40;;;;;;;-0.24;82.70;101775.64;1735332;82;21162;-64
2022/11/30 03:59:09;;;;;;;8.10;3.17;;;;;;;-0.24;82.85;101776.13;1735301;83;21542;-65
2022/11/30 04:01:42;;;;;;;7.78;3.30;;;;;;;-0.24;82.93;101767.56;1643219;86;21155;-63
2022/11/30 04:04:11;;;;;;;16.02;3.50;;;;;;;-0.23;83.22;101760.35;1645090;86;21160;-64
2022/11/30 04:06:40;;;;;;;9.30;3.40;;;;;;;-0.23;83.31;101768.44;1645105;86;21211;-64
2022/11/30 04:09:11;;;;;;;7.47;3.50;;;;;;;-0.23;83.31;101779.20;1644622;86;21555;-64
2022/11/30 04:11:40;;;;;;;7.55;3.30;;;;;;;-0.29;83.12;101765.64;1645673;86;21175;-63
2022/11/30 04:14:09;;;;;;;7.10;3.10;;;;;;;-0.29;83.40;101768.81;1645871;86;21139;-66
2022/11/30 04:16:38;;;;;;;8.63;3.70;;;;;;;-0.33;83.42;101766.31;1622930;86;21136;-63
2022/11/30 04:19:10;;;;;;;10.55;3.87;;;;;;;-0.33;83.53;101772.17;1645340;86;21598;-64
2022/11/30 04:21:38;;;;;;;7.05;3.37;;;;;;;-0.30;83.83;101776.50;1645497;86;21212;-64
2022/11/30 04:24:10;;;;;;;6.22;3.10;;;;;;;-0.34;83.66;101779.39;1669246;86;21174;-64
2022/11/30 04:26:45;;;;;;;8.95;3.17;;;;;;;-0.35;83.74;101776.78;1727098;82;21617;-64
2022/11/30 04:29:14;;;;;;;6.15;3.15;;;;;;;-0.34;83.84;101783.91;1735433;81;21171;-65
2022/11/30 04:31:42;;;;;;;8.20;3.30;;;;;;;-0.35;83.66;101783.04;1702206;84;21207;-66
2022/11/30 04:34:12;;;;;;;7.30;3.25;;;;;;;-0.38;83.81;101776.50;1735246;83;21605;-66
2022/11/30 04:36:41;;;;;;;6.20;3.05;;;;;;;-0.36;83.87;101783.13;1735468;83;21155;-64
2022/11/30 04:39:10;;;;;;;7.42;3.40;;;;;;;-0.37;83.94;101777.36;1735584;83;21106;-63
2022/11/30 04:41:42;;;;;;;8.40;3.20;;;;;;;-0.39;83.59;101781.97;1735259;82;21087;-64
2022/11/30 04:44:11;;;;;;;8.03;3.30;;;;;;;-0.42;83.67;101787.06;1702431;84;21129;-64
2022/11/30 04:46:41;;;;;;;10.85;3.67;;;;;;;-0.44;83.62;101780.91;1735433;83;21114;-64
2022/11/30 04:49:10;;;;;;;6.12;3.22;;;;;;;-0.44;83.60;101791.67;1735415;83;21115;-66
2022/11/30 04:51:39;;;;;;;7.58;3.10;;;;;;;-0.40;83.86;101777.55;1735646;82;21124;-63
2022/11/30 04:54:08;;;;;;;6.58;3.42;;;;;;;-0.41;83.66;101789.28;1735529;82;21533;-63
2022/11/30 04:56:39;;;;;;;6.72;2.80;;;;;;;-0.41;83.72;101798.70;1702228;84;21210;-66
2022/11/30 04:59:08;;;;;;;8.18;3.00;;;;;;;-0.43;83.68;101794.76;1735306;83;21150;-64
2022/11/30 05:01:38;;;;;;;7.50;2.80;;;;;;;-0.46;83.75;101796.29;1735486;83;21158;-65
2022/11/30 05:04:07;;;;;;;6.10;2.95;;;;;;;-0.47;83.42;101805.80;1706535;83;21555;-63
2022/11/30 05:06:37;;;;;;;5.55;2.83;;;;;;;-0.47;83.62;101816.58;1735263;82;21131;-65
2022/11/30 05:09:06;;;;;;;7.80;3.02;;;;;;;-0.49;83.04;101800.52;1709928;83;21281;-66
2022/11/30 05:11:35;;;;;;;6.65;2.80;;;;;;;-0.50;83.23;101811.38;1735533;83;21135;-64
2022/11/30 05:14:05;;;;;;;8.35;3.15;;;;;;;-0.51;82.91;101812.33;1735282;81;21622;-65
2022/11/30 05:16:34;;;;;;;4.55;2.72;;;;;;;-0.55;82.74;101819.73;1702440;84;21227;-64
2022/11/30 05:19:03;;;;;;;7.62;2.90;;;;;;;-0.57;82.30;101821.64;1735392;83;21115;-65
2022/11/30 05:21:32;;;;;;;6.28;2.72;;;;;;;-0.60;82.26;101823.17;1735243;82;21155;-64
2022/11/30 05:24:03;;;;;;;7.25;3.20;;;;;;;-0.60;82.41;101824.52;1735328;83;21135;-64
2022/11/30 05:26:34;;;;;;;8.35;3.35;;;;;;;-0.57;82.89;101826.16;1708727;83;21162;-63
2022/11/30 05:29:04;;;;;;;8.55;3.50;;;;;;;-0.59;82.18;101826.25;1734943;82;21099;-64
2022/11/30 05:31:37;;;;;;;6.90;2.80;;;;;;;-0.61;82.58;101825.48;1735438;82;21115;-63
2022/11/30 05:34:06;;;;;;;9.83;2.77;;;;;;;-0.60;82.41;101826.34;1735216;83;21151;-63
2022/11/30 05:36:35;;;;;;;9.15;3.35;;;;;;;-0.61;82.42;101822.78;1735668;82;21095;-65
2022/11/30 05:39:05;;;;;;;8.75;3.37;;;;;;;-0.61;82.38;101836.72;1735527;82;21130;-64
2022/11/30 05:41:34;;;;;;;8.20;3.00;;;;;;;-0.63;82.65;101832.78;1702235;84;21183;-64
2022/11/30 05:44:05;;;;;;;6.70;3.20;;;;;;;-0.64;82.69;101831.04;1735297;83;21115;-65
2022/11/30 05:46:34;;;;;;;9.25;3.25;;;;;;;-0.63;82.53;101831.43;1684245;83;21158;-64
2022/11/30 05:49:06;;;;;;;6.70;3.00;;;;;;;-0.67;82.47;101830.70;1734629;83;21119;-63
2022/11/30 05:51:35;;;;;;;6.25;3.00;;;;;;;-0.70;82.73;101834.06;1735593;82;21111;-64
2022/11/30 05:54:04;;;;;;;6.12;2.92;;;;;;;-0.68;82.96;101828.11;1707959;83;21602;-63
2022/11/30 05:56:33;;;;;;;7.40;3.42;;;;;;;-0.67;82.95;101824.46;1735297;83;21131;-64
2022/11/30 05:59:02;;;;;;;6.22;2.70;;;;;;;-0.66;83.01;101832.92;1735504;82;21557;-63
2022/11/30 06:01:32;;;;;;;6.20;3.02;;;;;;;-0.64;82.97;101835.08;1735143;83;21170;-64
2022/11/30 06:04:07;;;;;;;7.83;2.77;;;;;;;-0.66;82.97;101834.27;1735198;83;21108;-64
2022/11/30 06:06:38;;;;;;;10.00;3.33;;;;;;;-0.63;82.97;101834.59;1702395;84;21128;-66
2022/11/30 06:09:10;;;;;;;9.85;3.30;;;;;;;-0.67;82.80;101840.13;1709426;83;21538;-64
2022/11/30 06:11:39;;;;;;;6.50;3.33;;;;;;;-0.70;82.72;101836.28;1706638;83;21087;-65
2022/11/30 06:14:08;;;;;;;11.60;3.05;;;;;;;-0.70;82.72;101832.23;1735478;83;21123;-64
2022/11/30 06:16:41;;;;;;;8.73;3.72;;;;;;;-0.67;83.03;101823.11;1735406;83;21142;-63
2022/11/30 06:19:11;;;;;;;8.98;3.60;;;;;;;-0.64;83.07;101833.73;1735208;83;21761;-65
2022/11/30 06:21:40;;;;;;;8.40;3.10;;;;;;;-0.61;83.36;101826.83;1702151;84;21603;-65
2022/11/30 06:24:10;;;;;;;11.00;3.80;;;;;;;-0.58;83.54;101821.25;1718372;82;21556;-65
2022/11/30 06:26:39;;;;;;;9.85;3.70;;;;;;;-0.55;83.52;101817.03;1708984;84;21116;-65
2022/11/30 06:29:09;;;;;;;7.08;3.08;;;;;;;-0.56;83.56;101825.20;1709308;84;21109;-64
2022/11/30 06:31:39;;;;;;;8.18;3.22;;;;;;;-0.57;83.48;101829.72;1709105;84;21108;-65
2022/11/30 06:34:09;;;;;;;9.50;3.35;;;;;;;-0.61;82.75;101836.72;1708963;84;21160;-64
2022/11/30 06:36:39;;;;;;;7.10;3.30;;;;;;;-0.66;82.41;101838.31;1708947;84;21171;-64
2022/11/30 06:39:11;;;;;;;7.92;3.58;;;;;;;-0.69;82.64;101841.18;1708938;84;21570;-65
2022/11/30 06:41:39;;;;;;;8.53;3.75;;;;;;;-0.71;82.62;101844.44;1708860;84;21112;-66
2022/11/30 06:44:09;;;;;;;9.25;3.92;;;;;;;-0.71;82.79;101849.82;1709179;84;21117;-64
2022/11/30 06:46:40;;;;;;;8.05;3.52;;;;;;;-0.71;82.67;101865.49;1684199;84;21116;-66
2022/11/30 06:49:09;;;;;;;8.05;3.60;;;;;;;-0.73;82.54;101869.23;1708903;84;21597;-67
2022/11/30 06:51:39;;;;;;;10.03;3.67;;;;;;;-0.77;82.67;101865.85;1698168;84;21156;-63
2022/11/30 06:54:08;;;;;;;9.00;3.95;;;;;;;-0.79;82.65;101869.58;1695457;85;21136;-65
2022/11/30 06:56:38;;;;;;;11.38;4.00;;;;;;;-0.79;82.85;101872.28;1752091;82;21116;-65
2022/11/30 06:59:08;;;;;;;8.55;3.50;;;;;;;-0.77;82.97;101868.54;1752291;82;21155;-63
2022/11/30 07:01:38;;;;;;;7.53;3.60;;;;;;;-0.74;82.80;101878.26;1737361;82;21618;-67
2022/11/30 07:04:10;;;;;;;7.60;3.33;;;;;;;-0.74;82.85;101881.82;1752143;81;21564;-64
2022/11/30 07:06:39;;;;;;;11.70;3.98;;;;;;;-0.74;82.44;101874.22;1752347;81;21559;-64
2022/11/30 07:09:12;;;;;;;8.05;3.52;;;;;;;-0.76;82.15;101877.48;1752287;82;21121;-65
2022/11/30 07:11:42;;;;;;;10.63;4.20;;;;;;;-0.75;82.36;101880.56;1751960;82;21178;-67
2022/11/30 12:18:26;;;;;;;20.20;6.33;;;;;;;-1.05;82.68;101850.43;1822467;77;24604;-53
2022/11/30 12:27:42;;;;;;;17.37;6.25;;;;;;;-0.97;82.58;101854.89;1680505;83;21147;-54
2022/11/30 12:30:29;;;;;;;25.02;6.80;;;;;;;-0.89;82.55;101840.13;1660809;85;21994;-56
2022/11/30 12:33:29;;;;;;;24.87;7.17;;;;;;;-0.82;82.59;101845.55;1659816;86;21486;-56
2022/11/30 12:36:20;;;;;;;20.05;7.35;;;;;;;-0.76;82.44;101841.15;1659670;86;21155;-55
2022/11/30 12:38:58;;;;;;;16.50;6.05;;;;;;;-0.71;82.27;101849.34;1641934;86;21187;-56
2022/11/30 12:41:49;;;;;;;29.63;8.40;;;;;;;-0.68;82.33;101846.47;1636742;86;21158;-57
2022/11/30 12:44:44;;;;;;;31.85;7.85;;;;;;;-0.64;82.11;101851.23;1659590;86;21159;-54
2022/11/30 12:47:31;;;;;;;13.65;5.28;;;;;;;-0.61;81.75;101848.36;1659631;86;21219;-55
2022/11/30 12:50:24;;;;;;;15.25;5.40;;;;;;;-0.63;81.10;101854.79;1659911;86;21162;-55
2022/11/30 12:53:23;;;;;;;14.28;5.35;;;;;;;-0.69;80.66;101844.73;1659528;85;21170;-56
2022/11/30 12:56:35;;;;;;;13.15;5.85;;;;;;;-0.66;80.71;101849.07;1659379;86;21206;-55
2022/11/30 12:59:19;;;;;;;12.60;5.12;;;;;;;-0.63;80.61;101848.92;1658628;86;21614;-58
2022/11/30 13:02:34;;;;;;;13.95;4.97;;;;;;;-0.60;80.26;101850.56;1629250;88;21174;-56
2022/11/30 13:05:06;;;;;;;14.47;5.65;;;;;;;-0.59;79.91;101841.06;1659520;86;21163;-54
2022/11/30 13:07:55;;;;;;;20.15;5.08;;;;;;;-0.59;79.90;101847.78;1690704;82;21126;-57
2022/11/30 13:10:43;;;;;;;18.00;5.55;;;;;;;-0.60;79.19;101847.40;1702143;82;21201;-57
2022/11/30 13:13:17;;;;;;;21.07;8.68;;;;;;;-0.58;79.41;101845.48;1701741;83;21133;-58
2022/11/30 13:15:47;;;;;;;20.45;5.90;;;;;;;-0.56;79.74;101844.91;1702098;83;21102;-57
2022/11/30 13:18:20;;;;;;;14.63;5.50;;;;;;;-0.54;79.66;101852.42;1702220;83;21150;-57
2022/11/30 13:21:06;;;;;;;13.53;4.58;;;;;;;-0.52;79.33;101841.56;1680194;84;21546;-58
2022/11/30 13:23:40;;;;;;;17.00;5.13;;;;;;;-0.56;78.98;101839.53;1701567;84;21147;-58
2022/11/30 13:26:47;;;;;;;16.80;6.33;;;;;;;-0.56;78.95;101847.61;1685543;83;21214;-60
2022/11/30 13:29:42;;;;;;;17.62;6.45;;;;;;;-0.55;79.37;101840.39;1713860;82;21127;-56
2022/11/30 13:32:14;;;;;;;14.30;5.05;;;;;;;-0.54;79.40;101843.00;1714108;84;21166;-54
2022/11/30 13:34:46;;;;;;;17.73;5.75;;;;;;;-0.54;78.94;101841.65;1710671;84;21574;-59
2022/11/30 13:37:27;;;;;;;17.42;5.90;;;;;;;-0.55;78.72;101845.78;1713786;84;21135;-57
2022/11/30 13:39:56;;;;;;;17.73;6.07;;;;;;;-0.54;78.84;101836.27;1713885;83;21245;-55
2022/11/30 13:42:44;;;;;;;20.70;6.00;;;;;;;-0.53;78.73;101839.34;1713232;84;21135;-57
2022/11/30 13:45:20;;;;;;;20.10;6.08;;;;;;;-0.54;78.79;101829.53;1712474;82;21234;-58
2022/11/30 13:47:56;;;;;;;22.80;5.35;;;;;;;-0.53;79.00;101836.66;1713907;84;21590;-57
2022/11/30 13:50:39;;;;;;;17.37;5.55;;;;;;;-0.53;78.88;101832.62;1713134;84;21177;-57
2022/11/30 13:53:26;;;;;;;21.55;5.80;;;;;;;-0.54;78.94;101828.19;1701514;84;21632;-60
2022/11/30 13:56:16;;;;;;;;;;;;;;;-0.55;78.56;101830.50;1702534;84;21159;-55
2022/11/30 13:59:26;;;;;;;19.17;5.90;;;;;;;-0.55;78.41;101822.42;1708075;84;20200;-55
2022/11/30 14:02:40;;;;;;;19.65;5.97;;;;;;;-0.61;78.43;101823.27;1681325;84;22216;-58
2022/11/30 14:05:22;;;;;;;25.95;6.37;;;;;;;-0.66;77.76;101819.47;1680946;85;21158;-55
2022/11/30 14:08:09;;;;;;;20.60;6.33;;;;;;;-0.71;77.52;101821.08;1703135;84;21190;-54
2022/11/30 14:10:51;;;;;;;16.87;3.98;;;;;;;-0.71;77.57;101818.39;1680468;85;21170;-56
2022/11/30 14:13:29;;;;;;;17.37;5.53;;;;;;;-0.71;77.65;101828.29;1713240;84;21174;-56
2022/11/30 14:16:01;;;;;;;13.88;4.60;;;;;;;-0.69;77.88;101827.24;1680854;84;21215;-59
2022/11/30 14:18:40;;;;;;;22.40;5.10;;;;;;;-0.69;77.95;101829.94;1680884;84;21206;-54
2022/11/30 14:21:31;;;;;;;15.78;5.20;;;;;;;-0.67;77.97;101829.84;1713172;84;21601;-59
2022/11/30 14:24:17;;;;;;;14.10;5.00;;;;;;;-0.66;77.71;101832.92;1681545;84;21139;-57
2022/11/30 14:26:48;;;;;;;16.70;5.67;;;;;;;-0.67;78.05;101836.57;1680922;85;21159;-57
2022/11/30 14:29:28;;;;;;;16.30;5.35;;;;;;;-0.66;78.08;101840.52;1679352;84;21186;-56
2022/11/30 14:32:27;;;;;;;15.72;5.55;;;;;;;-0.66;78.15;101835.61;1687369;85;21134;-56
2022/11/30 14:35:11;;;;;;;22.73;7.05;;;;;;;-0.66;78.16;101838.31;1686407;85;21185;-58
2022/11/30 14:37:51;;;;;;;16.20;4.33;;;;;;;-0.63;78.46;101839.50;1686672;85;21166;-59
2022/11/30 14:40:24;;;;;;;17.85;7.12;;;;;;;-0.65;78.02;101842.28;1686932;85;21221;-56
2022/11/30 14:42:59;;;;;;;17.70;5.62;;;;;;;-0.67;77.55;101835.23;1686103;85;21598;-58
2022/11/30 14:45:32;;;;;;;15.20;5.80;;;;;;;-0.70;76.61;101841.66;1687190;85;22229;-58
2022/11/30 14:48:13;;;;;;;15.93;6.20;;;;;;;-0.72;76.74;101844.05;1687222;85;21127;-58
2022/11/30 14:50:51;;;;;;;11.75;4.37;;;;;;;-0.70;77.86;101832.72;1686997;85;21193;-58
2022/11/30 14:53:37;;;;;;;18.25;5.65;;;;;;;-0.66;77.55;101835.14;1686845;85;21205;-57
2022/11/30 14:56:30;;;;;;;14.38;5.15;;;;;;;-0.62;77.63;101834.52;1686534;84;21653;-57
2022/11/30 14:59:36;;;;;;;14.03;4.85;;;;;;;-0.59;77.26;101843.75;1687360;85;21146;-57
2022/11/30 15:02:08;;;;;;;19.25;5.35;;;;;;;-0.65;77.02;101846.33;1687379;85;21561;-57
2022/11/30 15:04:39;;;;;;;14.33;5.53;;;;;;;-0.67;77.01;101836.57;1687735;85;21198;-57
2022/11/30 15:07:13;;;;;;;17.45;5.42;;;;;;;-0.66;77.23;101843.21;1687268;85;21200;-59
2022/11/30 15:09:45;;;;;;;21.90;6.35;;;;;;;-0.64;77.17;101839.11;1686180;85;21253;-58
2022/11/30 15:12:20;;;;;;;18.27;5.40;;;;;;;-0.66;77.16;101843.69;1690486;85;21190;-59
2022/11/30 15:15:16;;;;;;;16.23;5.65;;;;;;;-0.68;77.15;101843.78;1665472;85;21608;-59
2022/11/30 15:17:52;;;;;;;20.55;5.53;;;;;;;-0.70;77.07;101848.87;1686758;85;21222;-55
2022/11/30 15:20:38;;;;;;;17.82;5.67;;;;;;;-0.71;77.33;101857.42;1687741;85;21193;-58
2022/11/30 15:23:13;;;;;;;22.25;5.72;;;;;;;-0.70;77.45;101856.46;1687204;85;21152;-57
2022/11/30 15:26:02;;;;;;;19.90;6.72;;;;;;;-0.68;78.04;101861.27;1666306;85;21559;-57
2022/11/30 15:28:36;;;;;;;19.65;5.67;;;;;;;-0.66;78.02;101855.33;1582731;89;21216;-58
2022/11/30 15:31:09;;;;;;;25.55;7.25;;;;;;;-0.65;78.09;101861.13;1582284;89;21600;-59
2022/11/30 15:33:42;;;;;;;21.07;6.33;;;;;;;-0.65;77.93;101865.16;1602645;89;21256;-58
2022/11/30 15:36:12;;;;;;;23.40;6.12;;;;;;;-0.69;77.62;101860.89;1602038;89;21680;-60
2022/11/30 15:38:49;;;;;;;18.65;6.30;;;;;;;-0.70;77.54;101857.80;1602327;89;21154;-57
2022/11/30 15:41:23;;;;;;;24.82;7.20;;;;;;;-0.67;77.79;101863.48;1603600;89;21608;-57
2022/11/30 15:43:56;;;;;;;22.62;6.37;;;;;;;-0.67;77.66;101862.14;1603066;89;21580;-56
2022/11/30 15:46:33;;;;;;;19.77;5.85;;;;;;;-0.69;77.56;101862.71;1645196;84;21211;-56
2022/11/30 15:49:23;;;;;;;22.30;6.35;;;;;;;-0.73;77.38;101869.23;1705959;83;21100;-55
2022/11/30 15:52:14;;;;;;;26.33;7.80;;;;;;;-0.74;76.80;101869.70;1669327;84;21626;-58
2022/11/30 15:54:54;;;;;;;27.00;7.12;;;;;;;-0.78;76.60;101868.63;1670026;85;21632;-57
2022/11/30 15:57:27;;;;;;;18.95;7.35;;;;;;;-0.78;76.73;101868.16;1706770;83;21230;-56
2022/11/30 16:00:18;;;;;;;23.87;6.55;;;;;;;-0.80;77.00;101863.34;1656584;85;21168;-57
2022/11/30 16:02:49;;;;;;;20.70;6.00;;;;;;;-0.80;77.18;101865.16;1664332;85;21156;-55
2022/11/30 16:05:25;;;;;;;23.60;6.30;;;;;;;-0.79;77.36;101866.89;1706563;84;21345;-56
2022/11/30 16:07:58;;;;;;;28.60;6.67;;;;;;;-0.82;77.24;101867.94;1706511;84;21103;-56
2022/11/30 16:10:38;;;;;;;19.23;5.90;;;;;;;-0.84;77.14;101867.64;1695396;84;21151;-55
2022/11/30 16:13:13;;;;;;;21.40;5.90;;;;;;;-0.86;77.08;101863.69;1693150;82;22344;-56
2022/11/30 16:15:46;;;;;;;20.12;6.15;;;;;;;-0.86;76.92;101863.69;1713413;83;21143;-55
2022/11/30 16:18:24;;;;;;;22.98;6.37;;;;;;;-0.85;77.01;101861.87;1713450;83;21134;-55
2022/11/30 22:27:50;;;;;;;8.08;3.45;;;;;;;-0.59;71.61;101906.14;1830020;77;22105;-62
2022/11/30 22:30:21;;;;;;;8.40;3.87;;;;;;;-0.60;71.62;101903.06;1788798;80;21099;-61
2022/11/30 22:32:51;;;;;;;11.10;3.37;;;;;;;-0.60;71.47;101907.09;1788679;80;21573;-60
2022/11/30 22:35:21;;;;;;;7.47;3.22;;;;;;;-0.58;71.74;101902.02;1788686;80;21562;-60
2022/11/30 22:37:53;;;;;;;10.55;3.62;;;;;;;-0.55;71.87;101890.20;1788635;80;21119;-60
2022/11/30 22:40:23;;;;;;;7.67;3.60;;;;;;;-0.56;71.77;101900.10;1769247;80;21227;-60
2022/11/30 22:42:52;;;;;;;8.93;3.27;;;;;;;-0.55;71.92;101895.10;1788794;80;21136;-62
2022/11/30 22:45:22;;;;;;;8.35;3.62;;;;;;;-0.54;71.69;101891.45;1788623;80;21103;-59
2022/11/30 22:47:53;;;;;;;10.90;3.20;;;;;;;-0.56;71.99;101890.67;1769177;80;21166;-59
2022/11/30 22:50:23;;;;;;;10.58;3.25;;;;;;;-0.55;71.82;101891.55;1788744;80;21601;-59
2022/11/30 22:52:53;;;;;;;5.45;2.95;;;;;;;-0.55;71.55;101882.98;1788637;80;21151;-60
2022/11/30 22:55:25;;;;;;;8.68;3.25;;;;;;;-0.58;70.81;101885.00;1788227;80;21103;-58
2022/11/30 22:57:56;;;;;;;10.40;3.12;;;;;;;-0.58;70.61;101885.00;1676702;85;21289;-58
2022/11/30 23:00:26;;;;;;;10.28;3.52;;;;;;;-0.58;71.18;101889.03;1676779;85;21138;-58
2022/11/30 23:02:56;;;;;;;10.48;3.40;;;;;;;-0.55;70.89;101889.72;1654525;85;21118;-60
2022/11/30 23:05:27;;;;;;;7.80;3.22;;;;;;;-0.57;70.62;101884.91;1653705;85;21308;-60
2022/11/30 23:07:57;;;;;;;7.45;2.85;;;;;;;-0.57;71.21;101879.52;1676643;85;21138;-60
2022/11/30 23:10:27;;;;;;;9.18;3.25;;;;;;;-0.56;71.18;101881.25;1676623;85;21581;-58
2022/11/30 23:12:58;;;;;;;7.08;3.30;;;;;;;-0.56;71.14;101882.60;1609951;89;21832;-58
2022/11/30 23:15:29;;;;;;;8.68;3.10;;;;;;;-0.56;71.29;101885.77;1633625;84;21142;-59